createdAt,value
2023-04-01T00:01:29.753Z,86.95
2023-04-01T00:03:58.172Z,86.91
2023-04-01T00:06:26.775Z,87.10
2023-04-01T00:08:55.961Z,86.88
2023-04-01T00:11:24.990Z,87.05
2023-04-01T00:13:53.204Z,86.39
2023-04-01T00:16:22.754Z,86.25
2023-04-01T00:18:52.115Z,86.58
2023-04-01T00:21:22.310Z,86.30
2023-04-01T00:23:52.181Z,85.96
2023-04-01T00:26:23.306Z,86.00
2023-04-01T00:28:55.347Z,85.57
2023-04-01T00:31:25.201Z,85.51
2023-04-01T00:33:53.612Z,85.67
2023-04-01T00:36:24.081Z,85.63
2023-04-01T00:38:53.163Z,86.11
2023-04-01T00:41:22.704Z,85.46
2023-04-01T00:43:52.173Z,85.31
2023-04-01T00:46:20.971Z,85.47
2023-04-01T00:48:56.837Z,84.76
2023-04-01T00:51:29.787Z,85.38
2023-04-01T00:53:59.446Z,84.83
2023-04-01T00:56:31.484Z,85.21
2023-04-01T00:59:06.459Z,85.43
2023-04-01T01:01:36.738Z,85.34
2023-04-01T01:04:05.384Z,85.30
2023-04-01T01:06:41.655Z,85.58
2023-04-01T01:09:15.788Z,85.47
2023-04-01T01:11:50.936Z,85.46
2023-04-01T01:14:36.606Z,85.91
2023-04-01T01:17:15.109Z,85.93
2023-04-01T01:20:15.502Z,85.99
2023-04-01T01:23:16.218Z,86.02
2023-04-01T01:25:47.666Z,85.49
2023-04-01T01:28:45.713Z,85.37
2023-04-01T01:31:50.358Z,85.61
2023-04-01T01:34:24.257Z,86.04
2023-04-01T01:36:56.666Z,85.20
2023-04-01T01:39:31.761Z,85.62
2023-04-01T01:42:02.582Z,85.39
2023-04-01T01:44:33.220Z,85.19
2023-04-01T01:47:02.017Z,85.29
2023-04-01T01:49:32.130Z,85.12
2023-04-01T01:52:00.459Z,85.28
2023-04-01T01:54:27.824Z,84.91
2023-04-01T01:57:08.499Z,84.66
2023-04-01T01:59:38.796Z,84.63
2023-04-01T02:02:09.168Z,84.92
2023-04-01T02:04:41.699Z,84.45
2023-04-01T02:07:12.905Z,84.86
2023-04-01T02:09:40.382Z,84.80
2023-04-01T02:12:09.696Z,84.40
2023-04-01T02:14:47.206Z,84.58
2023-04-01T02:17:27.631Z,84.59
2023-04-01T02:19:57.793Z,84.49
2023-04-01T02:22:30.965Z,84.59
2023-04-01T02:25:10.197Z,84.13
2023-04-01T02:27:37.530Z,84.56
2023-04-01T02:30:05.022Z,83.86
2023-04-01T02:32:32.713Z,83.94
2023-04-01T02:35:00.991Z,83.88
2023-04-01T02:37:28.295Z,83.47
2023-04-01T02:39:55.310Z,83.12
2023-04-01T02:42:22.372Z,83.27
2023-04-01T02:44:49.448Z,82.92
2023-04-01T02:47:16.488Z,82.90
2023-04-01T02:49:43.872Z,82.24
2023-04-01T02:52:11.033Z,82.62
2023-04-01T02:54:38.054Z,82.52
2023-04-01T02:57:05.299Z,82.51
2023-04-01T02:59:32.423Z,82.31
2023-04-01T03:01:59.617Z,82.04
2023-04-01T03:04:26.827Z,82.03
2023-04-01T03:06:53.907Z,81.38
2023-04-01T03:09:21.790Z,81.01
2023-04-01T03:11:48.860Z,81.66
2023-04-01T03:14:15.898Z,80.96
2023-04-01T03:16:43.044Z,81.15
2023-04-01T03:19:10.299Z,81.19
2023-04-01T03:21:37.609Z,81.12
2023-04-01T03:24:04.871Z,81.36
2023-04-01T03:26:32.194Z,81.45
2023-04-01T03:28:59.370Z,81.31
2023-04-01T03:31:26.930Z,81.29
2023-04-01T03:33:55.195Z,81.35
2023-04-01T03:36:22.591Z,81.55
2023-04-01T03:38:49.668Z,81.67
2023-04-01T03:41:18.002Z,81.81
2023-04-01T03:43:45.402Z,81.97
2023-04-01T03:46:12.670Z,81.79
2023-04-01T03:48:39.960Z,82.20
2023-04-01T03:51:08.804Z,81.83
2023-04-01T03:53:35.901Z,82.50
2023-04-01T03:56:07.665Z,82.53
2023-04-01T03:58:35.665Z,82.53
2023-04-01T04:01:02.839Z,82.55
2023-04-01T04:03:30.019Z,83.15
2023-04-01T04:05:57.543Z,83.14
2023-04-01T04:08:24.941Z,83.61
2023-04-01T04:10:58.255Z,83.39
2023-04-01T04:13:25.475Z,83.72
2023-04-01T04:15:52.519Z,84.00
2023-04-01T04:18:19.652Z,84.28
2023-04-01T04:20:52.196Z,84.51
2023-04-01T04:23:19.448Z,83.51
2023-04-01T04:26:01.423Z,83.50
2023-04-01T04:28:28.919Z,83.75
2023-04-01T04:30:56.060Z,83.88
2023-04-01T04:33:23.866Z,84.06
2023-04-01T04:35:51.551Z,84.18
2023-04-01T04:38:18.707Z,83.95
2023-04-01T04:40:45.932Z,84.32
2023-04-01T04:43:14.485Z,84.28
2023-04-01T04:45:42.109Z,84.02
2023-04-01T04:48:10.568Z,84.35
2023-04-01T04:50:37.662Z,84.18
2023-04-01T04:53:05.087Z,83.77
2023-04-01T04:55:32.313Z,83.58
2023-04-01T04:57:59.518Z,83.81
2023-04-01T05:00:26.549Z,83.90
2023-04-01T05:02:53.971Z,83.20
2023-04-01T05:05:21.083Z,83.14
2023-04-01T05:07:48.111Z,82.89
2023-04-01T05:10:15.478Z,82.43
2023-04-01T05:12:42.609Z,82.41
2023-04-01T05:15:10.026Z,82.29
2023-04-01T05:17:37.525Z,82.13
2023-04-01T05:20:05.861Z,82.00
2023-04-01T05:22:32.934Z,82.43
2023-04-01T05:25:00.005Z,83.27
2023-04-01T05:27:27.225Z,83.43
2023-04-01T05:29:54.277Z,82.99
2023-04-01T05:32:21.352Z,82.63
2023-04-01T05:34:51.730Z,82.44
2023-04-01T05:37:19.329Z,82.66
2023-04-01T05:39:46.392Z,82.19
2023-04-01T05:42:13.411Z,81.75
2023-04-01T05:44:40.613Z,81.62
2023-04-01T05:47:07.682Z,81.19
2023-04-01T05:49:35.033Z,81.01
2023-04-01T05:52:02.077Z,81.08
2023-04-01T05:54:29.978Z,80.13
2023-04-01T05:56:57.092Z,80.42
2023-04-01T05:59:24.378Z,80.46
2023-04-01T06:01:51.506Z,80.20
2023-04-01T06:04:19.185Z,80.26
2023-04-01T06:06:46.644Z,79.94
2023-04-01T06:09:25.285Z,79.47
2023-04-01T06:12:24.383Z,79.68
2023-04-01T06:15:08.728Z,79.63
2023-04-01T06:17:48.647Z,79.36
2023-04-01T06:20:27.966Z,79.43
2023-04-01T06:23:20.224Z,78.86
2023-04-01T06:26:00.920Z,79.20
2023-04-01T06:28:35.424Z,78.80
2023-04-01T06:31:09.346Z,78.86
2023-04-01T06:33:43.692Z,78.18
2023-04-01T06:36:32.030Z,77.91
2023-04-01T06:39:11.364Z,77.95
2023-04-01T06:42:12.435Z,78.21
2023-04-01T06:44:58.362Z,78.26
2023-04-01T06:47:36.068Z,78.31
2023-04-01T06:50:46.408Z,78.83
2023-04-01T06:53:40.672Z,78.20
2023-04-01T06:56:19.405Z,77.83
2023-04-01T06:58:54.300Z,78.02
2023-04-01T07:01:28.887Z,77.74
2023-04-01T07:04:03.289Z,78.42
2023-04-01T07:06:39.378Z,77.16
2023-04-01T07:09:11.485Z,76.86
2023-04-01T07:11:39.595Z,77.04
2023-04-01T07:14:32.946Z,77.18
2023-04-01T07:17:27.481Z,77.17
2023-04-01T07:20:03.991Z,76.71
2023-04-01T07:22:45.571Z,76.61
2023-04-01T07:25:16.183Z,75.99
2023-04-01T07:27:43.856Z,77.02
2023-04-01T07:30:17.265Z,76.75
2023-04-01T07:32:57.621Z,76.50
2023-04-01T07:35:44.982Z,75.80
2023-04-01T07:38:16.761Z,76.42
2023-04-01T07:40:51.370Z,77.77
2023-04-01T07:43:25.166Z,77.37
2023-04-01T07:46:22.844Z,78.31
2023-04-01T07:49:07.242Z,76.97
2023-04-01T07:52:00.429Z,77.06
2023-04-01T07:54:51.192Z,76.92
2023-04-01T07:57:28.935Z,76.99
2023-04-01T08:00:33.885Z,76.44
2023-04-01T08:03:11.487Z,76.17
2023-04-01T08:05:44.621Z,75.86
2023-04-01T08:08:28.368Z,74.43
2023-04-01T08:11:08.121Z,74.42
2023-04-01T08:13:49.929Z,74.26
2023-04-01T08:16:39.066Z,74.64
2023-04-01T08:19:41.413Z,74.67
2023-04-01T08:22:14.580Z,74.55
2023-04-01T08:24:47.542Z,74.66
2023-04-01T08:27:23.672Z,74.56
2023-04-01T08:30:04.193Z,74.16
2023-04-01T08:32:39.777Z,75.20
2023-04-01T08:35:18.267Z,76.16
2023-04-01T08:37:46.320Z,75.72
2023-04-01T08:40:39.004Z,75.03
2023-04-01T08:43:16.123Z,75.06
2023-04-01T08:46:01.056Z,74.73
2023-04-01T08:48:41.413Z,73.00
2023-04-01T08:51:49.608Z,72.81
2023-04-01T08:54:31.082Z,72.27
2023-04-01T08:57:05.427Z,71.75
2023-04-01T09:00:13.987Z,71.67
2023-04-01T09:03:14.190Z,70.23
2023-04-01T09:05:53.257Z,70.04
2023-04-01T09:08:32.265Z,70.01
2023-04-01T09:11:20.759Z,69.60
2023-04-01T09:14:08.431Z,70.48
2023-04-01T09:16:49.737Z,69.52
2023-04-01T09:19:44.973Z,70.59
2023-04-01T09:22:43.353Z,69.72
2023-04-01T09:25:17.198Z,69.76
2023-04-01T09:28:16.805Z,69.52
2023-04-01T09:30:46.596Z,70.28
2023-04-01T09:34:06.074Z,69.88
2023-04-01T09:36:47.047Z,69.04
2023-04-01T09:39:36.129Z,69.18
2023-04-01T09:42:27.684Z,68.78
2023-04-01T09:45:00.433Z,68.64
2023-04-01T09:48:12.411Z,67.58
2023-04-01T09:50:48.563Z,69.72
2023-04-01T09:53:46.433Z,69.04
2023-04-01T09:56:47.857Z,69.16
2023-04-01T09:59:28.015Z,68.55
2023-04-01T10:02:14.910Z,68.49
2023-04-01T10:04:57.231Z,68.93
2023-04-01T10:07:52.023Z,68.88
2023-04-01T10:10:49.561Z,67.75
2023-04-01T10:13:39.447Z,67.83
2023-04-01T10:16:39.167Z,68.49
2023-04-01T10:19:36.165Z,68.07
2023-04-01T10:22:28.069Z,67.13
2023-04-01T10:25:10.087Z,68.05
2023-04-01T10:28:00.907Z,68.43
2023-04-01T10:30:54.894Z,67.65
2023-04-01T10:33:43.506Z,66.92
2023-04-01T10:36:13.574Z,66.96
2023-04-01T10:38:57.372Z,66.85
2023-04-01T10:41:42.867Z,65.66
2023-04-01T10:44:54.671Z,66.93
2023-04-01T10:47:45.367Z,65.04
2023-04-01T10:50:40.032Z,66.05
2023-04-01T10:53:33.676Z,66.66
2023-04-01T10:56:38.703Z,65.42
2023-04-01T10:59:14.492Z,64.93
2023-04-01T11:02:11.337Z,64.06
2023-04-01T11:05:00.650Z,65.68
2023-04-01T11:08:06.676Z,64.70
2023-04-01T11:10:58.752Z,64.35
2023-04-01T11:13:38.466Z,65.00
2023-04-01T11:16:27.632Z,65.03
2023-04-01T11:19:22.451Z,64.49
2023-04-01T11:22:11.177Z,64.99
2023-04-01T11:25:05.780Z,64.43
2023-04-01T11:27:54.266Z,64.68
2023-04-01T11:30:33.806Z,65.46
2023-04-01T11:33:10.766Z,64.97
2023-04-01T11:35:43.972Z,65.71
2023-04-01T11:38:21.094Z,64.81
2023-04-01T11:40:55.794Z,65.98
2023-04-01T11:43:34.149Z,69.01
2023-04-01T11:46:20.880Z,69.43
2023-04-01T11:49:01.768Z,70.62
2023-04-01T11:51:44.877Z,69.11
2023-04-01T11:54:52.439Z,68.74
2023-04-01T11:57:53.773Z,69.21
2023-04-01T12:01:00.842Z,68.84
2023-04-01T12:03:55.329Z,69.59
2023-04-01T12:06:37.223Z,70.65
2023-04-01T12:09:15.901Z,70.75
2023-04-01T12:11:54.049Z,71.21
2023-04-01T12:14:40.616Z,72.12
2023-04-01T12:17:41.071Z,71.80
2023-04-01T12:20:31.535Z,72.74
2023-04-01T12:23:11.089Z,72.53
2023-04-01T12:25:50.146Z,74.17
2023-04-01T12:28:44.811Z,74.91
2023-04-01T12:31:20.629Z,74.13
2023-04-01T12:33:54.569Z,74.03
2023-04-01T12:36:58.938Z,75.03
2023-04-01T12:39:50.908Z,75.77
2023-04-01T12:42:32.907Z,75.75
2023-04-01T12:45:32.243Z,76.41
2023-04-01T12:48:24.169Z,76.79
2023-04-01T12:51:11.040Z,77.24
2023-04-01T12:54:03.814Z,77.50
2023-04-01T12:56:51.341Z,75.95
2023-04-01T12:59:48.975Z,79.13
2023-04-01T13:02:47.257Z,79.14
2023-04-01T13:05:45.320Z,78.89
2023-04-01T13:08:37.907Z,80.58
2023-04-01T13:11:11.339Z,80.62
2023-04-01T13:13:49.647Z,79.69
2023-04-01T13:16:43.565Z,79.34
2023-04-01T13:20:04.361Z,79.96
2023-04-01T13:22:38.863Z,79.97
2023-04-01T13:25:10.745Z,79.61
2023-04-01T13:27:45.021Z,78.28
2023-04-01T13:30:11.951Z,78.67
2023-04-01T13:33:14.462Z,80.44
2023-04-01T13:35:49.732Z,80.76
2023-04-01T13:38:48.177Z,79.98
2023-04-01T13:41:43.624Z,80.21
2023-04-01T13:44:15.756Z,81.21
2023-04-01T13:46:54.300Z,81.18
2023-04-01T13:49:32.898Z,81.99
2023-04-01T13:52:13.664Z,81.54
2023-04-01T13:54:50.848Z,80.69
2023-04-01T13:57:25.970Z,81.01
2023-04-01T14:00:21.665Z,80.72
2023-04-01T14:02:56.079Z,79.53
2023-04-01T14:05:43.105Z,79.72
2023-04-01T14:08:43.959Z,79.86
2023-04-01T14:11:21.191Z,77.93
2023-04-01T14:14:01.217Z,77.76
2023-04-01T14:16:36.105Z,78.77
2023-04-01T14:19:31.391Z,79.05
2023-04-01T14:22:18.802Z,79.37
2023-04-01T14:25:05.348Z,78.96
2023-04-01T14:28:12.729Z,78.29
2023-04-01T14:30:44.676Z,79.56
2023-04-01T14:33:42.261Z,79.06
2023-04-01T14:36:39.251Z,80.22
2023-04-01T14:39:31.245Z,79.59
2023-04-01T14:42:22.107Z,79.38
2023-04-01T14:45:07.754Z,79.54
2023-04-01T14:47:43.350Z,78.40
2023-04-01T14:50:14.933Z,77.91
2023-04-01T14:52:47.820Z,77.62
2023-04-01T14:55:27.552Z,76.66
2023-04-01T14:58:09.152Z,78.29
2023-04-01T15:00:51.126Z,78.56
2023-04-01T15:03:31.232Z,79.21
2023-04-01T15:06:16.512Z,78.89
2023-04-01T15:08:55.395Z,79.58
2023-04-01T15:12:07.572Z,79.13
2023-04-01T15:14:49.556Z,78.76
2023-04-01T15:18:13.598Z,79.62
2023-04-01T15:21:02.271Z,80.90
2023-04-01T15:23:57.828Z,79.01
2023-04-01T15:26:48.535Z,78.93
2023-04-01T15:29:26.310Z,79.30
2023-04-01T15:32:10.094Z,79.09
2023-04-01T15:34:41.666Z,79.51
2023-04-01T15:37:14.913Z,77.79
2023-04-01T15:39:47.781Z,78.29
2023-04-01T15:42:48.830Z,77.82
2023-04-01T15:45:23.662Z,76.41
2023-04-01T15:48:01.118Z,77.26
2023-04-01T15:50:47.129Z,75.65
2023-04-01T15:53:38.321Z,75.56
2023-04-01T15:56:17.122Z,74.59
2023-04-01T15:59:07.895Z,76.29
2023-04-01T16:02:01.417Z,76.22
2023-04-01T16:05:04.012Z,74.80
2023-04-01T16:08:02.818Z,75.73
2023-04-01T16:10:41.896Z,76.00
2023-04-01T16:13:43.891Z,76.23
2023-04-01T16:16:15.040Z,75.78
2023-04-01T16:19:21.870Z,76.03
2023-04-01T16:22:18.704Z,75.77
2023-04-01T16:25:07.696Z,75.65
2023-04-01T16:27:41.560Z,74.80
2023-04-01T16:30:36.210Z,75.44
2023-04-01T16:33:31.135Z,75.49
2023-04-01T16:36:25.577Z,74.61
2023-04-01T16:39:09.902Z,73.99
2023-04-01T16:41:50.179Z,73.49
2023-04-01T16:44:25.532Z,73.94
2023-04-01T16:47:00.113Z,73.85
2023-04-01T16:49:33.512Z,74.43
2023-04-01T16:52:11.072Z,74.57
2023-04-01T16:54:41.204Z,74.42
2023-04-01T16:57:11.343Z,74.45
2023-04-01T16:59:54.311Z,74.24
2023-04-01T17:02:26.505Z,74.37
2023-04-01T17:05:05.747Z,74.50
2023-04-01T17:07:48.053Z,74.58
2023-04-01T17:10:42.323Z,74.47
2023-04-01T17:13:12.250Z,74.60
2023-04-01T17:16:03.321Z,74.73
2023-04-01T17:18:47.223Z,75.46
2023-04-01T17:21:34.412Z,75.22
2023-04-01T17:24:24.054Z,75.75
2023-04-01T17:27:06.753Z,75.40
2023-04-01T17:29:39.237Z,75.90
2023-04-01T17:32:14.688Z,75.94
2023-04-01T17:35:08.631Z,75.84
2023-04-01T17:37:40.110Z,75.95
2023-04-01T17:40:35.809Z,76.21
2023-04-01T17:43:45.885Z,76.46
2023-04-01T17:46:33.007Z,76.31
2023-04-01T17:49:16.036Z,76.48
2023-04-01T17:51:59.214Z,76.66
2023-04-01T17:54:38.700Z,76.25
2023-04-01T17:57:32.075Z,76.50
2023-04-01T18:00:05.850Z,76.71
2023-04-01T18:03:27.485Z,77.00
2023-04-01T18:06:16.045Z,77.36
2023-04-01T18:09:00.135Z,77.31
2023-04-01T18:11:53.466Z,77.39
2023-04-01T18:14:25.264Z,77.35
2023-04-01T18:17:16.572Z,77.78
2023-04-01T18:20:03.786Z,77.70
2023-04-01T18:22:44.198Z,77.65
2023-04-01T18:25:26.085Z,77.97
2023-04-01T18:28:19.559Z,77.74
2023-04-01T18:31:01.991Z,78.11
2023-04-01T18:34:02.772Z,78.29
2023-04-01T18:36:39.777Z,77.80
2023-04-01T18:39:36.795Z,78.36
2023-04-01T18:42:25.269Z,78.28
2023-04-01T18:44:57.607Z,78.10
2023-04-01T18:47:37.420Z,78.33
2023-04-01T18:50:14.829Z,78.76
2023-04-01T18:52:45.669Z,78.33
2023-04-01T18:55:24.695Z,78.92
2023-04-01T18:57:59.973Z,78.65
2023-04-01T19:00:29.650Z,78.94
2023-04-01T19:03:12.801Z,79.06
2023-04-01T19:05:41.752Z,79.00
2023-04-01T19:08:27.034Z,79.31
2023-04-01T19:11:33.936Z,79.22
2023-04-01T19:14:16.341Z,79.39
2023-04-01T19:16:55.811Z,80.06
2023-04-01T19:19:43.801Z,80.09
2023-04-01T19:22:39.071Z,80.11
2023-04-01T19:25:23.674Z,80.39
2023-04-01T19:27:56.624Z,80.22
2023-04-01T19:30:28.206Z,79.86
2023-04-01T19:33:16.816Z,80.23
2023-04-01T19:35:50.598Z,80.51
2023-04-01T19:38:21.688Z,80.29
2023-04-01T19:41:07.477Z,80.66
2023-04-01T19:44:01.038Z,80.75
2023-04-01T19:46:38.006Z,80.69
2023-04-01T19:49:36.675Z,81.45
2023-04-01T19:52:16.815Z,81.14
2023-04-01T19:55:05.558Z,81.36
2023-04-01T19:57:50.125Z,81.17
2023-04-01T20:00:28.553Z,81.68
2023-04-01T20:03:09.236Z,81.42
2023-04-01T20:05:45.237Z,81.20
2023-04-01T20:08:48.349Z,80.93
2023-04-01T20:11:39.033Z,80.85
2023-04-01T20:14:30.914Z,80.41
2023-04-01T20:17:08.969Z,80.82
2023-04-01T20:19:40.319Z,80.59
2023-04-01T20:22:26.834Z,80.77
2023-04-01T20:24:55.907Z,81.02
2023-04-01T20:27:28.279Z,81.17
2023-04-01T20:30:29.096Z,81.23
2023-04-01T20:33:03.100Z,81.35
2023-04-01T20:35:45.610Z,81.60
2023-04-01T20:38:54.239Z,81.47
2023-04-01T20:41:23.923Z,81.50
2023-04-01T20:43:59.263Z,81.24
2023-04-01T20:46:53.567Z,81.60
2023-04-01T20:49:36.936Z,81.59
2023-04-01T20:52:18.673Z,81.57
2023-04-01T20:55:07.937Z,81.42
2023-04-01T20:58:00.522Z,81.91
2023-04-01T21:00:41.906Z,82.51
2023-04-01T21:03:36.919Z,82.06
2023-04-01T21:06:31.938Z,81.90
2023-04-01T21:09:31.233Z,81.93
2023-04-01T21:12:04.270Z,81.84
2023-04-01T21:14:59.536Z,81.95
2023-04-01T21:17:52.416Z,82.23
2023-04-01T21:20:27.344Z,82.44
2023-04-01T21:23:22.417Z,82.07
2023-04-01T21:26:04.422Z,82.29
2023-04-01T21:28:50.321Z,82.06
2023-04-01T21:31:26.990Z,82.30
2023-04-01T21:34:18.055Z,82.58
2023-04-01T21:37:05.544Z,83.09
2023-04-01T21:39:43.622Z,82.81
2023-04-01T21:42:13.406Z,82.80
2023-04-01T21:45:10.459Z,82.40
2023-04-01T21:47:43.905Z,82.86
2023-04-01T21:50:30.078Z,82.38
2023-04-01T21:53:06.171Z,82.95
2023-04-01T21:55:33.848Z,83.01
2023-04-01T21:58:30.001Z,83.16
2023-04-01T22:01:07.076Z,83.29
2023-04-01T22:03:46.638Z,82.89
2023-04-01T22:06:27.080Z,83.45
2023-04-01T22:09:06.420Z,83.35
2023-04-01T22:11:55.592Z,83.38
2023-04-01T22:14:42.876Z,83.89
2023-04-01T22:17:31.820Z,84.09
2023-04-01T22:20:16.997Z,84.05
2023-04-01T22:23:27.524Z,84.66
2023-04-01T22:26:30.160Z,84.74
2023-04-01T22:29:12.348Z,84.58
2023-04-01T22:31:42.747Z,84.96
2023-04-01T22:34:39.666Z,84.97
2023-04-01T22:37:15.409Z,85.36
2023-04-01T22:40:09.978Z,85.97
2023-04-01T22:42:42.999Z,85.50
2023-04-01T22:45:13.370Z,85.96
2023-04-01T22:48:03.195Z,86.28
2023-04-01T22:50:51.979Z,86.08
2023-04-01T22:53:28.523Z,86.37
2023-04-01T22:55:58.646Z,86.14
2023-04-01T22:58:35.545Z,86.30
2023-04-01T23:01:07.357Z,86.68
2023-04-01T23:03:37.996Z,86.69
2023-04-01T23:06:05.707Z,86.89
2023-04-01T23:09:07.125Z,87.28
2023-04-01T23:11:43.222Z,87.00
2023-04-01T23:14:24.259Z,87.33
2023-04-01T23:16:55.915Z,87.05
2023-04-01T23:19:30.681Z,87.36
2023-04-01T23:22:12.389Z,87.50
2023-04-01T23:24:51.888Z,87.65
2023-04-01T23:27:24.754Z,87.83
2023-04-01T23:29:53.597Z,88.20
2023-04-01T23:32:25.734Z,88.43
2023-04-01T23:34:55.173Z,88.86
2023-04-01T23:37:23.552Z,88.81
2023-04-01T23:40:02.176Z,88.95
2023-04-01T23:42:34.553Z,89.27
2023-04-01T23:45:04.896Z,89.32
2023-04-01T23:47:32.874Z,89.72
2023-04-01T23:50:12.829Z,89.76
2023-04-01T23:53:01.919Z,89.73
2023-04-01T23:55:32.948Z,89.85
2023-04-01T23:58:06.180Z,90.22
